VOI1732 MMGL-KFAT
Flight info
| Callsign | VOI1732 |
|---|---|
| Flight time | 3h 14m |
| Altitude | 36000 |
| Route | SEDEM1B SEDEM UJ3 TOYAC/N0448F380 UJ3 LMM DCT AXASA J93 ASUTA/N0443F360 J93 PDZ J50 LANDO DCT TTE ALTTA9 |
| Aircraft | A320/M-SDE3FGHIRWY/LB1 |
Departure
| Time | 2026-05-06 01:46 |
|---|---|
| Airport | Guadalajara International Airport (MMGL) |
Arrival
| Time | 2026-05-06 05:00 |
|---|---|
| Airport | Fresno Yosemite International Airport (KFAT) |
| Time | Latitude | Longitude | Altitude | Speed | Heading |
|---|---|---|---|---|---|
| 2026-05-06 01:18 | 20.52501 | -103.30301 | 5020 ft | 0 kts | 19° |
| 2026-05-06 01:19 | 20.52487 | -103.30259 | 5019 ft | 0 kts | 19° |
| 2026-05-06 01:32 | 20.52475 | -103.30264 | 5018 ft | 3 kts | 23° |
| 2026-05-06 01:33 | 20.52457 | -103.30273 | 5017 ft | 3 kts | 33° |
| 2026-05-06 01:33 | 20.52441 | -103.30286 | 5020 ft | 3 kts | 53° |
| 2026-05-06 01:33 | 20.52433 | -103.30303 | 5018 ft | 3 kts | 92° |
| 2026-05-06 01:33 | 20.52434 | -103.30314 | 5020 ft | 1 kts | 109° |
| 2026-05-06 01:34 | 20.52435 | -103.30316 | 5020 ft | 1 kts | 109° |
| 2026-05-06 01:37 | 20.52429 | -103.30298 | 5020 ft | 5 kts | 109° |
| 2026-05-06 01:38 | 20.52414 | -103.30251 | 5019 ft | 9 kts | 109° |
| 2026-05-06 01:38 | 20.52361 | -103.30225 | 5020 ft | 11 kts | 199° |
| 2026-05-06 01:38 | 20.52314 | -103.30242 | 5018 ft | 4 kts | 199° |
| 2026-05-06 01:38 | 20.52276 | -103.30257 | 5020 ft | 8 kts | 199° |
| 2026-05-06 01:39 | 20.52255 | -103.30264 | 5020 ft | 0 kts | 199° |
| 2026-05-06 01:40 | 20.52241 | -103.30269 | 5020 ft | 4 kts | 199° |
| 2026-05-06 01:40 | 20.52202 | -103.30274 | 5020 ft | 7 kts | 158° |
| 2026-05-06 01:40 | 20.52174 | -103.30222 | 5020 ft | 10 kts | 108° |
| 2026-05-06 01:40 | 20.52146 | -103.30138 | 5017 ft | 14 kts | 110° |
| 2026-05-06 01:41 | 20.52109 | -103.30029 | 5019 ft | 17 kts | 110° |
| 2026-05-06 01:41 | 20.52066 | -103.29897 | 5019 ft | 20 kts | 118° |
| 2026-05-06 01:41 | 20.51979 | -103.29768 | 5020 ft | 23 kts | 126° |
| 2026-05-06 01:41 | 20.51899 | -103.29653 | 5020 ft | 20 kts | 127° |
| 2026-05-06 01:42 | 20.51811 | -103.29527 | 5020 ft | 23 kts | 119° |
| 2026-05-06 01:42 | 20.51751 | -103.29434 | 5020 ft | 18 kts | 127° |
| 2026-05-06 01:42 | 20.51667 | -103.29316 | 5020 ft | 21 kts | 128° |
| 2026-05-06 01:42 | 20.51601 | -103.29225 | 5020 ft | 13 kts | 137° |
| 2026-05-06 01:43 | 20.51515 | -103.29229 | 5020 ft | 8 kts | 200° |
| 2026-05-06 01:43 | 20.51503 | -103.29234 | 5020 ft | 0 kts | 201° |
| 2026-05-06 01:44 | 20.51487 | -103.29240 | 5020 ft | 4 kts | 201° |
| 2026-05-06 01:44 | 20.51447 | -103.29257 | 5020 ft | 8 kts | 201° |
| 2026-05-06 01:44 | 20.51427 | -103.29314 | 5020 ft | 10 kts | 281° |
| 2026-05-06 01:45 | 20.51469 | -103.29416 | 5021 ft | 31 kts | 294° |
| 2026-05-06 01:45 | 20.51640 | -103.29823 | 5022 ft | 88 kts | 293° |
| 2026-05-06 01:45 | 20.51979 | -103.30626 | 5021 ft | 151 kts | 292° |
| 2026-05-06 01:45 | 20.52469 | -103.31773 | 5418 ft | 182 kts | 295° |
| 2026-05-06 01:46 | 20.53044 | -103.33057 | 6128 ft | 202 kts | 294° |
| 2026-05-06 01:46 | 20.53666 | -103.34472 | 6658 ft | 220 kts | 294° |
| 2026-05-06 01:46 | 20.54314 | -103.36040 | 7259 ft | 241 kts | 293° |
| 2026-05-06 01:46 | 20.55001 | -103.37723 | 7785 ft | 255 kts | 293° |
| 2026-05-06 01:47 | 20.55746 | -103.39502 | 8149 ft | 271 kts | 297° |
| 2026-05-06 01:47 | 20.56942 | -103.41089 | 8654 ft | 279 kts | 315° |
| 2026-05-06 01:47 | 20.58370 | -103.42519 | 9241 ft | 285 kts | 315° |
| 2026-05-06 01:47 | 20.59827 | -103.43980 | 9861 ft | 289 kts | 314° |
| 2026-05-06 01:48 | 20.61316 | -103.45476 | 10253 ft | 302 kts | 314° |
| 2026-05-06 01:48 | 20.62886 | -103.47056 | 10472 ft | 318 kts | 315° |
| 2026-05-06 01:48 | 20.64538 | -103.48716 | 10693 ft | 333 kts | 315° |
| 2026-05-06 01:48 | 20.66252 | -103.50433 | 11088 ft | 341 kts | 315° |
| 2026-05-06 01:49 | 20.67996 | -103.52178 | 11557 ft | 346 kts | 315° |
| 2026-05-06 01:49 | 20.69766 | -103.53953 | 12050 ft | 351 kts | 315° |
| 2026-05-06 01:49 | 20.71556 | -103.55752 | 12542 ft | 356 kts | 315° |
| 2026-05-06 01:49 | 20.73373 | -103.57576 | 13060 ft | 361 kts | 315° |
| 2026-05-06 01:50 | 20.75210 | -103.59421 | 13584 ft | 365 kts | 315° |
| 2026-05-06 01:50 | 20.77071 | -103.61289 | 14074 ft | 369 kts | 315° |
| 2026-05-06 01:50 | 20.78944 | -103.63172 | 14582 ft | 371 kts | 315° |
| 2026-05-06 01:50 | 20.80802 | -103.65042 | 15102 ft | 373 kts | 315° |
| 2026-05-06 01:51 | 20.82698 | -103.66946 | 15637 ft | 375 kts | 315° |
| 2026-05-06 01:51 | 20.84607 | -103.68864 | 16165 ft | 378 kts | 315° |
| 2026-05-06 01:51 | 20.86551 | -103.70822 | 16684 ft | 380 kts | 315° |
| 2026-05-06 01:51 | 20.88454 | -103.72741 | 17202 ft | 382 kts | 315° |
| 2026-05-06 01:52 | 20.90395 | -103.74700 | 17707 ft | 385 kts | 315° |
| 2026-05-06 01:52 | 20.92351 | -103.76672 | 18198 ft | 388 kts | 315° |
| 2026-05-06 01:52 | 20.94327 | -103.78663 | 18650 ft | 391 kts | 315° |
| 2026-05-06 01:52 | 20.96317 | -103.80669 | 19099 ft | 395 kts | 314° |
| 2026-05-06 01:53 | 20.98322 | -103.82691 | 19552 ft | 398 kts | 314° |
| 2026-05-06 01:53 | 21.00341 | -103.84731 | 20012 ft | 401 kts | 314° |
| 2026-05-06 01:53 | 21.02379 | -103.86792 | 20461 ft | 405 kts | 314° |
| 2026-05-06 01:53 | 21.04436 | -103.88871 | 20899 ft | 408 kts | 314° |
| 2026-05-06 01:54 | 21.06507 | -103.90964 | 21307 ft | 411 kts | 314° |
| 2026-05-06 01:54 | 21.08597 | -103.93075 | 21549 ft | 416 kts | 314° |
| 2026-05-06 01:54 | 21.10703 | -103.95208 | 22042 ft | 418 kts | 313° |
| 2026-05-06 01:54 | 21.12782 | -103.97389 | 22536 ft | 420 kts | 311° |
| 2026-05-06 01:55 | 21.14828 | -103.99630 | 22845 ft | 422 kts | 310° |
| 2026-05-06 01:55 | 21.16856 | -104.01901 | 22909 ft | 422 kts | 310° |
| 2026-05-06 01:55 | 21.18872 | -104.04181 | 22922 ft | 422 kts | 310° |
| 2026-05-06 01:55 | 21.20889 | -104.06460 | 22946 ft | 421 kts | 310° |
| 2026-05-06 01:56 | 21.22915 | -104.08731 | 23328 ft | 424 kts | 310° |
| 2026-05-06 01:56 | 21.24968 | -104.11019 | 23740 ft | 427 kts | 310° |
| 2026-05-06 01:56 | 21.27039 | -104.13317 | 24146 ft | 429 kts | 310° |
| 2026-05-06 01:56 | 21.29121 | -104.15624 | 24549 ft | 431 kts | 310° |
| 2026-05-06 01:57 | 21.31208 | -104.17934 | 24947 ft | 432 kts | 310° |
| 2026-05-06 01:57 | 21.33300 | -104.20253 | 25313 ft | 434 kts | 310° |
| 2026-05-06 01:57 | 21.35407 | -104.22589 | 25667 ft | 436 kts | 310° |
| 2026-05-06 01:57 | 21.37519 | -104.24930 | 26044 ft | 438 kts | 310° |
| 2026-05-06 01:58 | 21.39639 | -104.27281 | 26414 ft | 439 kts | 310° |
| 2026-05-06 01:58 | 21.41763 | -104.29641 | 26791 ft | 440 kts | 310° |
| 2026-05-06 01:58 | 21.43892 | -104.32007 | 27152 ft | 442 kts | 310° |
| 2026-05-06 01:58 | 21.46033 | -104.34385 | 27507 ft | 444 kts | 310° |
| 2026-05-06 01:59 | 21.48184 | -104.36774 | 27829 ft | 445 kts | 310° |
| 2026-05-06 01:59 | 21.50335 | -104.39167 | 28134 ft | 446 kts | 309° |
| 2026-05-06 01:59 | 21.52494 | -104.41573 | 28447 ft | 448 kts | 309° |
| 2026-05-06 01:59 | 21.54659 | -104.43991 | 28776 ft | 450 kts | 309° |
| 2026-05-06 02:00 | 21.56833 | -104.46422 | 29126 ft | 452 kts | 309° |
| 2026-05-06 02:00 | 21.59014 | -104.48862 | 29454 ft | 454 kts | 309° |
| 2026-05-06 02:00 | 21.61205 | -104.51312 | 29792 ft | 456 kts | 309° |
| 2026-05-06 02:00 | 21.63412 | -104.53768 | 30134 ft | 458 kts | 309° |
| 2026-05-06 02:01 | 21.65623 | -104.56228 | 30417 ft | 459 kts | 309° |
| 2026-05-06 02:01 | 21.67842 | -104.58702 | 30698 ft | 460 kts | 309° |
| 2026-05-06 02:01 | 21.70066 | -104.61187 | 30975 ft | 462 kts | 309° |
| 2026-05-06 02:01 | 21.72291 | -104.63676 | 31263 ft | 462 kts | 309° |
| 2026-05-06 02:02 | 21.74511 | -104.66161 | 31647 ft | 460 kts | 309° |
| 2026-05-06 02:02 | 21.76725 | -104.68635 | 32031 ft | 458 kts | 309° |
| 2026-05-06 02:02 | 21.78924 | -104.71096 | 32424 ft | 456 kts | 309° |
| 2026-05-06 02:02 | 21.81119 | -104.73554 | 32803 ft | 454 kts | 309° |
| 2026-05-06 02:03 | 21.83304 | -104.76001 | 33211 ft | 452 kts | 309° |
| 2026-05-06 02:03 | 21.85478 | -104.78437 | 33598 ft | 451 kts | 309° |
| 2026-05-06 02:03 | 21.87645 | -104.80867 | 33970 ft | 449 kts | 309° |
| 2026-05-06 02:03 | 21.89801 | -104.83286 | 34264 ft | 448 kts | 309° |
| 2026-05-06 02:04 | 21.91952 | -104.85704 | 34580 ft | 446 kts | 309° |
| 2026-05-06 02:04 | 21.94095 | -104.88118 | 34881 ft | 445 kts | 309° |
| 2026-05-06 02:04 | 21.96231 | -104.90525 | 35220 ft | 443 kts | 309° |
| 2026-05-06 02:04 | 21.98352 | -104.92912 | 35560 ft | 441 kts | 309° |
| 2026-05-06 02:05 | 22.00471 | -104.95299 | 35856 ft | 440 kts | 309° |
| 2026-05-06 02:05 | 22.02584 | -104.97678 | 35941 ft | 438 kts | 309° |
| 2026-05-06 02:05 | 22.06788 | -105.02402 | 35946 ft | 437 kts | 309° |
| 2026-05-06 02:06 | 22.10990 | -105.07141 | 35943 ft | 437 kts | 309° |
| 2026-05-06 02:06 | 22.15179 | -105.11875 | 35936 ft | 436 kts | 309° |
| 2026-05-06 02:07 | 22.19378 | -105.16608 | 35925 ft | 436 kts | 309° |
| 2026-05-06 02:07 | 22.23540 | -105.21320 | 35928 ft | 436 kts | 309° |
| 2026-05-06 02:08 | 22.27722 | -105.26064 | 35929 ft | 436 kts | 309° |
| 2026-05-06 02:08 | 22.31912 | -105.30799 | 35924 ft | 437 kts | 309° |
| 2026-05-06 02:09 | 22.36102 | -105.35538 | 35931 ft | 436 kts | 309° |
| 2026-05-06 02:09 | 22.40277 | -105.40286 | 35926 ft | 435 kts | 309° |
| 2026-05-06 02:10 | 22.44443 | -105.45033 | 35920 ft | 435 kts | 309° |
| 2026-05-06 02:10 | 22.48615 | -105.49778 | 35916 ft | 435 kts | 309° |
| 2026-05-06 02:11 | 22.52085 | -105.53719 | 35912 ft | 435 kts | 309° |
| 2026-05-06 02:11 | 22.56255 | -105.58462 | 35916 ft | 435 kts | 309° |
| 2026-05-06 02:12 | 22.60421 | -105.63219 | 35911 ft | 435 kts | 309° |
| 2026-05-06 02:12 | 22.64588 | -105.67977 | 35910 ft | 435 kts | 308° |
| 2026-05-06 02:13 | 22.68752 | -105.72736 | 35911 ft | 435 kts | 308° |
| 2026-05-06 02:13 | 22.72919 | -105.77496 | 35910 ft | 435 kts | 308° |
| 2026-05-06 02:14 | 22.77084 | -105.82265 | 35914 ft | 435 kts | 308° |
| 2026-05-06 02:14 | 22.81244 | -105.87032 | 35912 ft | 436 kts | 308° |
| 2026-05-06 02:15 | 22.85404 | -105.91805 | 35913 ft | 435 kts | 308° |
| 2026-05-06 02:15 | 22.89568 | -105.96576 | 35913 ft | 435 kts | 308° |
| 2026-05-06 02:16 | 22.93724 | -106.01348 | 35913 ft | 435 kts | 308° |
| 2026-05-06 02:16 | 22.97879 | -106.06129 | 35917 ft | 435 kts | 308° |
| 2026-05-06 02:17 | 23.02030 | -106.10905 | 35919 ft | 435 kts | 308° |
| 2026-05-06 02:17 | 23.06179 | -106.15692 | 35929 ft | 435 kts | 308° |
| 2026-05-06 02:18 | 23.10327 | -106.20478 | 35935 ft | 435 kts | 308° |
| 2026-05-06 02:18 | 23.14471 | -106.25259 | 35935 ft | 435 kts | 308° |
| 2026-05-06 02:19 | 23.18649 | -106.30013 | 35934 ft | 436 kts | 309° |
| 2026-05-06 02:19 | 23.22970 | -106.34643 | 35932 ft | 436 kts | 310° |
| 2026-05-06 02:20 | 23.29453 | -106.41527 | 35923 ft | 436 kts | 309° |
| 2026-05-06 02:21 | 23.33748 | -106.46173 | 35917 ft | 435 kts | 309° |
| 2026-05-06 02:21 | 23.38034 | -106.50830 | 35910 ft | 435 kts | 309° |
| 2026-05-06 02:22 | 23.42329 | -106.55483 | 35900 ft | 435 kts | 309° |
| 2026-05-06 02:22 | 23.46622 | -106.60138 | 35900 ft | 435 kts | 309° |
| 2026-05-06 02:23 | 23.50910 | -106.64794 | 35906 ft | 435 kts | 309° |
| 2026-05-06 02:23 | 23.55194 | -106.69447 | 35892 ft | 435 kts | 308° |
| 2026-05-06 02:24 | 23.59475 | -106.74110 | 35894 ft | 435 kts | 308° |
| 2026-05-06 02:24 | 23.63751 | -106.78770 | 35889 ft | 435 kts | 308° |
| 2026-05-06 02:25 | 23.68030 | -106.83436 | 35885 ft | 435 kts | 308° |
| 2026-05-06 02:25 | 23.72311 | -106.88103 | 35891 ft | 435 kts | 308° |
| 2026-05-06 02:26 | 23.76588 | -106.92767 | 35896 ft | 435 kts | 308° |
| 2026-05-06 02:26 | 23.80860 | -106.97441 | 35900 ft | 435 kts | 308° |
| 2026-05-06 02:27 | 23.85126 | -107.02116 | 35901 ft | 434 kts | 308° |
| 2026-05-06 02:27 | 23.89396 | -107.06791 | 35898 ft | 434 kts | 308° |
| 2026-05-06 02:28 | 23.93659 | -107.11462 | 35894 ft | 434 kts | 308° |
| 2026-05-06 02:28 | 23.97911 | -107.16137 | 35887 ft | 434 kts | 308° |
| 2026-05-06 02:29 | 24.02173 | -107.20821 | 35881 ft | 434 kts | 308° |
| 2026-05-06 02:29 | 24.06431 | -107.25498 | 35888 ft | 434 kts | 307° |
| 2026-05-06 02:30 | 24.10685 | -107.30186 | 35908 ft | 433 kts | 307° |
| 2026-05-06 02:30 | 24.14931 | -107.34873 | 35895 ft | 433 kts | 307° |
| 2026-05-06 02:31 | 24.19169 | -107.39561 | 35885 ft | 433 kts | 307° |
| 2026-05-06 02:31 | 24.23419 | -107.44243 | 35884 ft | 433 kts | 307° |
| 2026-05-06 02:32 | 24.27663 | -107.48925 | 35885 ft | 433 kts | 307° |
| 2026-05-06 02:32 | 24.31903 | -107.53617 | 35887 ft | 433 kts | 307° |
| 2026-05-06 02:33 | 24.36139 | -107.58305 | 35890 ft | 433 kts | 307° |
| 2026-05-06 02:33 | 24.37540 | -107.59857 | 35892 ft | 433 kts | 307° |
| 2026-05-06 02:34 | 24.44595 | -107.67692 | 35892 ft | 432 kts | 306° |
| 2026-05-06 02:34 | 24.48813 | -107.72385 | 35894 ft | 432 kts | 306° |
| 2026-05-06 02:35 | 24.53039 | -107.77075 | 35892 ft | 432 kts | 306° |
| 2026-05-06 02:35 | 24.57263 | -107.81767 | 35892 ft | 432 kts | 306° |
| 2026-05-06 02:36 | 24.61471 | -107.86461 | 35892 ft | 431 kts | 306° |
| 2026-05-06 02:36 | 24.65676 | -107.91159 | 35898 ft | 431 kts | 306° |
| 2026-05-06 02:37 | 24.69881 | -107.95856 | 35898 ft | 431 kts | 306° |
| 2026-05-06 02:37 | 24.74087 | -108.00551 | 35899 ft | 430 kts | 306° |
| 2026-05-06 02:38 | 24.78281 | -108.05243 | 35897 ft | 430 kts | 305° |
| 2026-05-06 02:38 | 24.82469 | -108.09944 | 35903 ft | 430 kts | 305° |
| 2026-05-06 02:39 | 24.86648 | -108.14640 | 35902 ft | 429 kts | 305° |
| 2026-05-06 02:39 | 24.90828 | -108.19332 | 35903 ft | 429 kts | 305° |
| 2026-05-06 02:40 | 24.94979 | -108.23989 | 35904 ft | 428 kts | 305° |
| 2026-05-06 02:40 | 24.99150 | -108.28677 | 35907 ft | 428 kts | 305° |
| 2026-05-06 02:41 | 25.03339 | -108.33400 | 35907 ft | 427 kts | 305° |
| 2026-05-06 02:41 | 25.07496 | -108.38080 | 35911 ft | 427 kts | 304° |
| 2026-05-06 02:42 | 25.11613 | -108.42733 | 35909 ft | 426 kts | 304° |
| 2026-05-06 02:42 | 25.15763 | -108.47410 | 35912 ft | 426 kts | 304° |
| 2026-05-06 02:43 | 25.19901 | -108.52083 | 35914 ft | 425 kts | 304° |
| 2026-05-06 02:43 | 25.24028 | -108.56760 | 35918 ft | 425 kts | 304° |
| 2026-05-06 02:44 | 25.28141 | -108.61431 | 35918 ft | 424 kts | 304° |
| 2026-05-06 02:44 | 25.32258 | -108.66096 | 35922 ft | 423 kts | 304° |
| 2026-05-06 02:45 | 25.36359 | -108.70757 | 35926 ft | 423 kts | 304° |
| 2026-05-06 02:45 | 25.40459 | -108.75412 | 35929 ft | 422 kts | 304° |
| 2026-05-06 02:46 | 25.44553 | -108.80063 | 35934 ft | 421 kts | 304° |
| 2026-05-06 02:46 | 25.48634 | -108.84711 | 35939 ft | 421 kts | 304° |
| 2026-05-06 02:47 | 25.52712 | -108.89362 | 35941 ft | 421 kts | 304° |
| 2026-05-06 02:47 | 25.56784 | -108.94015 | 35946 ft | 420 kts | 303° |
| 2026-05-06 02:48 | 25.60850 | -108.98665 | 35952 ft | 420 kts | 304° |
| 2026-05-06 02:48 | 25.64911 | -109.03313 | 35946 ft | 420 kts | 303° |
| 2026-05-06 02:49 | 25.69102 | -109.07860 | 35949 ft | 430 kts | 312° |
| 2026-05-06 02:49 | 25.73917 | -109.11853 | 35951 ft | 432 kts | 313° |
| 2026-05-06 02:50 | 25.78743 | -109.15842 | 35951 ft | 432 kts | 312° |
| 2026-05-06 02:50 | 25.83547 | -109.19845 | 35952 ft | 432 kts | 312° |
| 2026-05-06 02:51 | 25.88315 | -109.23826 | 35953 ft | 431 kts | 312° |
| 2026-05-06 02:51 | 25.93109 | -109.27830 | 35952 ft | 431 kts | 312° |
| 2026-05-06 02:52 | 25.97904 | -109.31833 | 35955 ft | 431 kts | 312° |
| 2026-05-06 02:52 | 26.02690 | -109.35835 | 35955 ft | 430 kts | 312° |
| 2026-05-06 02:53 | 26.07469 | -109.39835 | 35957 ft | 430 kts | 312° |
| 2026-05-06 02:53 | 26.12241 | -109.43832 | 35959 ft | 429 kts | 312° |
| 2026-05-06 02:54 | 26.17007 | -109.47827 | 35961 ft | 428 kts | 311° |
| 2026-05-06 02:54 | 26.21762 | -109.51822 | 35964 ft | 428 kts | 311° |
| 2026-05-06 02:55 | 26.25734 | -109.55161 | 35953 ft | 427 kts | 311° |
| 2026-05-06 02:55 | 26.30473 | -109.59145 | 35945 ft | 427 kts | 311° |
| 2026-05-06 02:56 | 26.35211 | -109.63130 | 35942 ft | 426 kts | 311° |
| 2026-05-06 02:56 | 26.39935 | -109.67113 | 35943 ft | 426 kts | 311° |
| 2026-05-06 02:57 | 26.44663 | -109.71105 | 35946 ft | 426 kts | 311° |
| 2026-05-06 02:57 | 26.49390 | -109.75099 | 35954 ft | 426 kts | 310° |
| 2026-05-06 02:58 | 26.54109 | -109.79092 | 35956 ft | 426 kts | 310° |
| 2026-05-06 02:58 | 26.58836 | -109.83091 | 35963 ft | 426 kts | 310° |
| 2026-05-06 02:59 | 26.63559 | -109.87086 | 35963 ft | 426 kts | 310° |
| 2026-05-06 02:59 | 26.68279 | -109.91092 | 35963 ft | 426 kts | 310° |
| 2026-05-06 03:00 | 26.72996 | -109.95100 | 35963 ft | 426 kts | 310° |
| 2026-05-06 03:00 | 26.77714 | -109.99108 | 35963 ft | 426 kts | 310° |
| 2026-05-06 03:01 | 26.82425 | -110.03121 | 35967 ft | 426 kts | 310° |
| 2026-05-06 03:01 | 26.87139 | -110.07141 | 35968 ft | 426 kts | 309° |
| 2026-05-06 03:02 | 26.91816 | -110.11126 | 35970 ft | 426 kts | 309° |
| 2026-05-06 03:02 | 26.96531 | -110.15142 | 35975 ft | 425 kts | 309° |
| 2026-05-06 03:03 | 27.01229 | -110.19164 | 35977 ft | 425 kts | 309° |
| 2026-05-06 03:03 | 27.05928 | -110.23188 | 35980 ft | 425 kts | 309° |
| 2026-05-06 03:04 | 27.10624 | -110.27198 | 35967 ft | 424 kts | 309° |
| 2026-05-06 03:04 | 27.15308 | -110.31210 | 35957 ft | 424 kts | 309° |
| 2026-05-06 03:05 | 27.19988 | -110.35236 | 35960 ft | 424 kts | 309° |
| 2026-05-06 03:05 | 27.24669 | -110.39258 | 35968 ft | 423 kts | 309° |
| 2026-05-06 03:06 | 27.29349 | -110.43284 | 35974 ft | 424 kts | 309° |
| 2026-05-06 03:06 | 27.34020 | -110.47308 | 35978 ft | 423 kts | 309° |
| 2026-05-06 03:07 | 27.38688 | -110.51331 | 35976 ft | 423 kts | 309° |
| 2026-05-06 03:07 | 27.43356 | -110.55356 | 35974 ft | 422 kts | 309° |
| 2026-05-06 03:08 | 27.48008 | -110.59387 | 35964 ft | 422 kts | 309° |
| 2026-05-06 03:08 | 27.52664 | -110.63413 | 35975 ft | 421 kts | 308° |
| 2026-05-06 03:09 | 27.57313 | -110.67442 | 35970 ft | 422 kts | 308° |
| 2026-05-06 03:09 | 27.61964 | -110.71476 | 35975 ft | 421 kts | 308° |
| 2026-05-06 03:10 | 27.66614 | -110.75507 | 35976 ft | 422 kts | 308° |
| 2026-05-06 03:10 | 27.71263 | -110.79539 | 35984 ft | 421 kts | 308° |
| 2026-05-06 03:11 | 27.75900 | -110.83571 | 35973 ft | 421 kts | 308° |
| 2026-05-06 03:11 | 27.80538 | -110.87608 | 35976 ft | 421 kts | 308° |
| 2026-05-06 03:12 | 27.85169 | -110.91646 | 35976 ft | 420 kts | 308° |
| 2026-05-06 03:12 | 27.89802 | -110.95693 | 35955 ft | 422 kts | 308° |
| 2026-05-06 03:13 | 27.94413 | -110.99722 | 35957 ft | 421 kts | 308° |
| 2026-05-06 03:13 | 27.99046 | -111.03778 | 35958 ft | 421 kts | 308° |
| 2026-05-06 03:14 | 28.03672 | -111.07830 | 35958 ft | 421 kts | 308° |
| 2026-05-06 03:14 | 28.08334 | -111.11912 | 35962 ft | 421 kts | 308° |
| 2026-05-06 03:15 | 28.12944 | -111.15953 | 35963 ft | 422 kts | 308° |
| 2026-05-06 03:15 | 28.17584 | -111.20024 | 35972 ft | 422 kts | 308° |
| 2026-05-06 03:16 | 28.22226 | -111.24108 | 35981 ft | 422 kts | 308° |
| 2026-05-06 03:16 | 28.26871 | -111.28196 | 35986 ft | 423 kts | 308° |
| 2026-05-06 03:17 | 28.31517 | -111.32287 | 35977 ft | 422 kts | 308° |
| 2026-05-06 03:17 | 28.36157 | -111.36392 | 35976 ft | 423 kts | 308° |
| 2026-05-06 03:18 | 28.40811 | -111.40506 | 35986 ft | 424 kts | 308° |
| 2026-05-06 03:18 | 28.45472 | -111.44621 | 35991 ft | 425 kts | 308° |
| 2026-05-06 03:19 | 28.50136 | -111.48742 | 35991 ft | 424 kts | 308° |
| 2026-05-06 03:19 | 28.54787 | -111.52872 | 35995 ft | 425 kts | 308° |
| 2026-05-06 03:20 | 28.61775 | -111.59070 | 35987 ft | 424 kts | 308° |
| 2026-05-06 03:20 | 28.66427 | -111.63203 | 35985 ft | 424 kts | 307° |
| 2026-05-06 03:21 | 28.71035 | -111.67309 | 35989 ft | 424 kts | 307° |
| 2026-05-06 03:21 | 28.75707 | -111.71476 | 35978 ft | 423 kts | 307° |
| 2026-05-06 03:22 | 28.80310 | -111.75584 | 35982 ft | 423 kts | 307° |
| 2026-05-06 03:22 | 28.84941 | -111.79720 | 35982 ft | 423 kts | 307° |
| 2026-05-06 03:23 | 28.89573 | -111.83860 | 35984 ft | 423 kts | 307° |
| 2026-05-06 03:23 | 28.94199 | -111.88001 | 35988 ft | 423 kts | 307° |
| 2026-05-06 03:24 | 28.98828 | -111.92154 | 35993 ft | 423 kts | 307° |
| 2026-05-06 03:24 | 29.03456 | -111.96304 | 35998 ft | 423 kts | 307° |
| 2026-05-06 03:25 | 29.08083 | -112.00461 | 35996 ft | 423 kts | 307° |
| 2026-05-06 03:25 | 29.12705 | -112.04624 | 36000 ft | 423 kts | 307° |
| 2026-05-06 03:26 | 29.17306 | -112.08760 | 35978 ft | 420 kts | 307° |
| 2026-05-06 03:26 | 29.21890 | -112.12884 | 35982 ft | 419 kts | 307° |
| 2026-05-06 03:27 | 29.26484 | -112.17039 | 35978 ft | 422 kts | 307° |
| 2026-05-06 03:27 | 29.31093 | -112.21203 | 35979 ft | 421 kts | 307° |
| 2026-05-06 03:28 | 29.35689 | -112.25358 | 35979 ft | 421 kts | 307° |
| 2026-05-06 03:28 | 29.40284 | -112.29513 | 35984 ft | 420 kts | 307° |
| 2026-05-06 03:29 | 29.44867 | -112.33674 | 35988 ft | 420 kts | 307° |
| 2026-05-06 03:29 | 29.49450 | -112.37832 | 35996 ft | 420 kts | 307° |
| 2026-05-06 03:30 | 29.54023 | -112.41989 | 35999 ft | 419 kts | 307° |
| 2026-05-06 03:30 | 29.58588 | -112.46153 | 36004 ft | 419 kts | 307° |
| 2026-05-06 03:31 | 29.63147 | -112.50316 | 36002 ft | 419 kts | 307° |
| 2026-05-06 03:31 | 29.67707 | -112.54477 | 35992 ft | 418 kts | 307° |
| 2026-05-06 03:32 | 29.72234 | -112.58614 | 35990 ft | 418 kts | 307° |
| 2026-05-06 03:32 | 29.76788 | -112.62772 | 35988 ft | 418 kts | 307° |
| 2026-05-06 03:33 | 29.81336 | -112.66935 | 35993 ft | 418 kts | 307° |
| 2026-05-06 03:33 | 29.85880 | -112.71100 | 35991 ft | 417 kts | 307° |
| 2026-05-06 03:34 | 29.90416 | -112.75273 | 35991 ft | 417 kts | 307° |
| 2026-05-06 03:34 | 29.94949 | -112.79438 | 35992 ft | 417 kts | 307° |
| 2026-05-06 03:35 | 29.99484 | -112.83600 | 35992 ft | 416 kts | 307° |
| 2026-05-06 03:35 | 30.04008 | -112.87767 | 35990 ft | 416 kts | 307° |
| 2026-05-06 03:36 | 30.08528 | -112.91936 | 35991 ft | 416 kts | 307° |
| 2026-05-06 03:36 | 30.13043 | -112.96101 | 35979 ft | 415 kts | 307° |
| 2026-05-06 03:37 | 30.17552 | -113.00267 | 35982 ft | 415 kts | 307° |
| 2026-05-06 03:37 | 30.22050 | -113.04440 | 35986 ft | 414 kts | 307° |
| 2026-05-06 03:38 | 30.26551 | -113.08603 | 35985 ft | 414 kts | 307° |
| 2026-05-06 03:38 | 30.31043 | -113.12763 | 35988 ft | 414 kts | 307° |
| 2026-05-06 03:39 | 30.35531 | -113.16932 | 35988 ft | 413 kts | 307° |
| 2026-05-06 03:39 | 30.39254 | -113.20396 | 35983 ft | 413 kts | 307° |
| 2026-05-06 03:40 | 30.44486 | -113.25277 | 35982 ft | 413 kts | 307° |
| 2026-05-06 03:40 | 30.48204 | -113.28745 | 35980 ft | 413 kts | 307° |
| 2026-05-06 03:41 | 30.52674 | -113.32916 | 35980 ft | 412 kts | 307° |
| 2026-05-06 03:41 | 30.57145 | -113.37089 | 35979 ft | 412 kts | 307° |
| 2026-05-06 03:42 | 30.61612 | -113.41265 | 35975 ft | 412 kts | 307° |
| 2026-05-06 03:42 | 30.66064 | -113.45442 | 35982 ft | 411 kts | 307° |
| 2026-05-06 03:43 | 30.70513 | -113.49625 | 35980 ft | 411 kts | 307° |
| 2026-05-06 03:43 | 30.74968 | -113.53796 | 35983 ft | 411 kts | 307° |
| 2026-05-06 03:44 | 30.79409 | -113.57966 | 35984 ft | 410 kts | 307° |
| 2026-05-06 03:44 | 30.83848 | -113.62141 | 35983 ft | 410 kts | 307° |
| 2026-05-06 03:45 | 30.88276 | -113.66316 | 35986 ft | 410 kts | 307° |
| 2026-05-06 03:45 | 30.92702 | -113.70490 | 35988 ft | 409 kts | 307° |
| 2026-05-06 03:46 | 30.97126 | -113.74665 | 35991 ft | 409 kts | 307° |
| 2026-05-06 03:46 | 31.01545 | -113.78842 | 35992 ft | 409 kts | 307° |
| 2026-05-06 03:47 | 31.05953 | -113.83025 | 35991 ft | 409 kts | 307° |
| 2026-05-06 03:47 | 31.10368 | -113.87204 | 35990 ft | 409 kts | 307° |
| 2026-05-06 03:48 | 31.14774 | -113.91380 | 35977 ft | 408 kts | 307° |
| 2026-05-06 03:48 | 31.19173 | -113.95576 | 35974 ft | 408 kts | 307° |
| 2026-05-06 03:49 | 31.23575 | -113.99765 | 35967 ft | 408 kts | 307° |
| 2026-05-06 03:49 | 31.27945 | -114.03926 | 35954 ft | 408 kts | 307° |
| 2026-05-06 03:50 | 31.32370 | -114.08152 | 35950 ft | 408 kts | 307° |
| 2026-05-06 03:50 | 31.36734 | -114.12322 | 35946 ft | 408 kts | 307° |
| 2026-05-06 03:51 | 31.41134 | -114.16523 | 35949 ft | 408 kts | 308° |
| 2026-05-06 03:51 | 31.45530 | -114.20734 | 35950 ft | 408 kts | 308° |
| 2026-05-06 03:52 | 31.49919 | -114.24950 | 35944 ft | 408 kts | 308° |
| 2026-05-06 03:52 | 31.54314 | -114.29172 | 35945 ft | 408 kts | 308° |
| 2026-05-06 03:53 | 31.58713 | -114.33391 | 35952 ft | 408 kts | 308° |
| 2026-05-06 03:53 | 31.63106 | -114.37618 | 35953 ft | 409 kts | 308° |
| 2026-05-06 03:54 | 31.67496 | -114.41852 | 35937 ft | 409 kts | 308° |
| 2026-05-06 03:54 | 31.71899 | -114.46099 | 35934 ft | 410 kts | 308° |
| 2026-05-06 03:55 | 31.76298 | -114.50355 | 35937 ft | 410 kts | 308° |
| 2026-05-06 03:55 | 31.80700 | -114.54613 | 35940 ft | 410 kts | 308° |
| 2026-05-06 03:56 | 31.85107 | -114.58876 | 35932 ft | 410 kts | 308° |
| 2026-05-06 03:56 | 31.89509 | -114.63149 | 35934 ft | 411 kts | 309° |
| 2026-05-06 03:57 | 31.93917 | -114.67437 | 35932 ft | 411 kts | 309° |
| 2026-05-06 03:57 | 31.98329 | -114.71736 | 35931 ft | 412 kts | 309° |
| 2026-05-06 03:58 | 32.02751 | -114.76036 | 35933 ft | 412 kts | 309° |
| 2026-05-06 03:58 | 32.07176 | -114.80345 | 35937 ft | 413 kts | 309° |
| 2026-05-06 03:59 | 32.11596 | -114.84664 | 35940 ft | 413 kts | 310° |
| 2026-05-06 03:59 | 32.16032 | -114.88990 | 35945 ft | 414 kts | 310° |
| 2026-05-06 04:00 | 32.20468 | -114.93331 | 35945 ft | 414 kts | 310° |
| 2026-05-06 04:00 | 32.24906 | -114.97686 | 35948 ft | 415 kts | 310° |
| 2026-05-06 04:01 | 32.29349 | -115.02047 | 35954 ft | 416 kts | 311° |
| 2026-05-06 04:01 | 32.33633 | -115.06568 | 35949 ft | 405 kts | 302° |
| 2026-05-06 04:02 | 32.36774 | -115.11957 | 35962 ft | 397 kts | 294° |
| 2026-05-06 04:02 | 32.39731 | -115.17477 | 35969 ft | 397 kts | 295° |
| 2026-05-06 04:03 | 32.42699 | -115.23000 | 35976 ft | 398 kts | 295° |
| 2026-05-06 04:03 | 32.45645 | -115.28500 | 35983 ft | 399 kts | 295° |
| 2026-05-06 04:04 | 32.48610 | -115.34050 | 35986 ft | 399 kts | 295° |
| 2026-05-06 04:04 | 32.51583 | -115.39617 | 35976 ft | 400 kts | 295° |
| 2026-05-06 04:05 | 32.54562 | -115.45198 | 35975 ft | 402 kts | 295° |
| 2026-05-06 04:05 | 32.57547 | -115.50799 | 35976 ft | 402 kts | 295° |
| 2026-05-06 04:06 | 32.60536 | -115.56429 | 35986 ft | 404 kts | 295° |
| 2026-05-06 04:06 | 32.63531 | -115.62061 | 35998 ft | 404 kts | 295° |
| 2026-05-06 04:07 | 32.66526 | -115.67720 | 36005 ft | 405 kts | 295° |
| 2026-05-06 04:07 | 32.69524 | -115.73389 | 35998 ft | 406 kts | 295° |
| 2026-05-06 04:08 | 32.72530 | -115.79074 | 36007 ft | 407 kts | 296° |
| 2026-05-06 04:08 | 32.75533 | -115.84772 | 36007 ft | 407 kts | 296° |
| 2026-05-06 04:09 | 32.78538 | -115.90478 | 36017 ft | 408 kts | 296° |
| 2026-05-06 04:09 | 32.81550 | -115.96191 | 36025 ft | 408 kts | 296° |
| 2026-05-06 04:10 | 32.84555 | -116.01907 | 36032 ft | 407 kts | 296° |
| 2026-05-06 04:10 | 32.87555 | -116.07630 | 36033 ft | 408 kts | 296° |
| 2026-05-06 04:11 | 32.90546 | -116.13357 | 36042 ft | 408 kts | 296° |
| 2026-05-06 04:11 | 32.93538 | -116.19094 | 36036 ft | 408 kts | 296° |
| 2026-05-06 04:12 | 32.96527 | -116.24831 | 36045 ft | 408 kts | 296° |
| 2026-05-06 04:12 | 32.99514 | -116.30567 | 36045 ft | 407 kts | 296° |
| 2026-05-06 04:13 | 33.02503 | -116.36303 | 36049 ft | 407 kts | 296° |
| 2026-05-06 04:13 | 33.05486 | -116.42040 | 36047 ft | 407 kts | 296° |
| 2026-05-06 04:14 | 33.08469 | -116.47792 | 36055 ft | 408 kts | 296° |
| 2026-05-06 04:14 | 33.11430 | -116.53525 | 36064 ft | 409 kts | 296° |
| 2026-05-06 04:15 | 33.14613 | -116.59224 | 36067 ft | 416 kts | 305° |
| 2026-05-06 04:15 | 33.18710 | -116.64185 | 36064 ft | 421 kts | 309° |
| 2026-05-06 04:16 | 33.22857 | -116.69130 | 36067 ft | 421 kts | 309° |
| 2026-05-06 04:16 | 33.26963 | -116.74069 | 36060 ft | 422 kts | 309° |
| 2026-05-06 04:17 | 33.31101 | -116.79060 | 36057 ft | 423 kts | 309° |
| 2026-05-06 04:17 | 33.35243 | -116.84065 | 36052 ft | 424 kts | 309° |
| 2026-05-06 04:18 | 33.39395 | -116.89081 | 36048 ft | 425 kts | 309° |
| 2026-05-06 04:18 | 33.43563 | -116.94102 | 36050 ft | 426 kts | 309° |
| 2026-05-06 04:19 | 33.47737 | -116.99150 | 36060 ft | 427 kts | 309° |
| 2026-05-06 04:19 | 33.51913 | -117.04223 | 36065 ft | 428 kts | 309° |
| 2026-05-06 04:20 | 33.56099 | -117.09305 | 36073 ft | 429 kts | 309° |
| 2026-05-06 04:20 | 33.60292 | -117.14395 | 36075 ft | 429 kts | 309° |
| 2026-05-06 04:21 | 33.64483 | -117.19502 | 36078 ft | 429 kts | 309° |
| 2026-05-06 04:21 | 33.68668 | -117.24618 | 36076 ft | 429 kts | 309° |
| 2026-05-06 04:22 | 33.72857 | -117.29740 | 36067 ft | 429 kts | 309° |
| 2026-05-06 04:23 | 33.79131 | -117.37421 | 36067 ft | 429 kts | 309° |
| 2026-05-06 04:23 | 33.83312 | -117.42550 | 36086 ft | 429 kts | 309° |
| 2026-05-06 04:24 | 33.87494 | -117.47681 | 36090 ft | 430 kts | 309° |
| 2026-05-06 04:24 | 33.90974 | -117.51950 | 36099 ft | 430 kts | 310° |
| 2026-05-06 04:25 | 33.95570 | -117.56639 | 36098 ft | 434 kts | 316° |
| 2026-05-06 04:25 | 34.00270 | -117.61216 | 36099 ft | 435 kts | 316° |
| 2026-05-06 04:26 | 34.04969 | -117.65821 | 36090 ft | 435 kts | 316° |
| 2026-05-06 04:26 | 34.09662 | -117.70430 | 36088 ft | 436 kts | 316° |
| 2026-05-06 04:27 | 34.14361 | -117.75052 | 36100 ft | 436 kts | 316° |
| 2026-05-06 04:27 | 34.19065 | -117.79679 | 36084 ft | 437 kts | 316° |
| 2026-05-06 04:28 | 34.23775 | -117.84319 | 36081 ft | 437 kts | 317° |
| 2026-05-06 04:28 | 34.28489 | -117.88960 | 36075 ft | 437 kts | 317° |
| 2026-05-06 04:29 | 34.33201 | -117.93616 | 36066 ft | 437 kts | 317° |
| 2026-05-06 04:29 | 34.37910 | -117.98284 | 36057 ft | 438 kts | 317° |
| 2026-05-06 04:30 | 34.42619 | -118.02954 | 36062 ft | 438 kts | 317° |
| 2026-05-06 04:30 | 34.47331 | -118.07635 | 36066 ft | 438 kts | 317° |
| 2026-05-06 04:31 | 34.52043 | -118.12317 | 36068 ft | 438 kts | 318° |
| 2026-05-06 04:31 | 34.56756 | -118.17003 | 36073 ft | 438 kts | 318° |
| 2026-05-06 04:32 | 34.61467 | -118.21695 | 36070 ft | 438 kts | 318° |
| 2026-05-06 04:32 | 34.66179 | -118.26394 | 36078 ft | 438 kts | 318° |
| 2026-05-06 04:33 | 34.70881 | -118.31106 | 36074 ft | 438 kts | 318° |
| 2026-05-06 04:33 | 34.75586 | -118.35827 | 36072 ft | 438 kts | 318° |
| 2026-05-06 04:34 | 34.80295 | -118.40546 | 36069 ft | 439 kts | 319° |
| 2026-05-06 04:34 | 34.85002 | -118.45267 | 36070 ft | 439 kts | 319° |
| 2026-05-06 04:35 | 34.89711 | -118.49999 | 36102 ft | 439 kts | 319° |
| 2026-05-06 04:35 | 34.94418 | -118.54743 | 36108 ft | 441 kts | 319° |
| 2026-05-06 04:36 | 34.99188 | -118.59554 | 36109 ft | 446 kts | 320° |
| 2026-05-06 04:36 | 35.04630 | -118.63168 | 36115 ft | 450 kts | 339° |
| 2026-05-06 04:37 | 35.10521 | -118.65738 | 36111 ft | 450 kts | 339° |
| 2026-05-06 04:37 | 35.16403 | -118.68349 | 36109 ft | 450 kts | 339° |
| 2026-05-06 04:38 | 35.22269 | -118.70979 | 36109 ft | 449 kts | 339° |
| 2026-05-06 04:38 | 35.28096 | -118.73596 | 36103 ft | 449 kts | 339° |
| 2026-05-06 04:39 | 35.33964 | -118.76218 | 36085 ft | 449 kts | 339° |
| 2026-05-06 04:39 | 35.39839 | -118.78841 | 36085 ft | 449 kts | 339° |
| 2026-05-06 04:40 | 35.45702 | -118.81468 | 35063 ft | 449 kts | 340° |
| 2026-05-06 04:40 | 35.48644 | -118.82789 | 33916 ft | 450 kts | 341° |
| 2026-05-06 04:40 | 35.51568 | -118.84102 | 32874 ft | 444 kts | 341° |
| 2026-05-06 04:40 | 35.54444 | -118.85397 | 31959 ft | 436 kts | 341° |
| 2026-05-06 04:41 | 35.57261 | -118.86668 | 31094 ft | 427 kts | 341° |
| 2026-05-06 04:41 | 35.60020 | -118.87914 | 30246 ft | 419 kts | 341° |
| 2026-05-06 04:41 | 35.62734 | -118.89135 | 29278 ft | 411 kts | 341° |
| 2026-05-06 04:41 | 35.65401 | -118.90333 | 28300 ft | 405 kts | 341° |
| 2026-05-06 04:42 | 35.68029 | -118.91513 | 27364 ft | 399 kts | 341° |
| 2026-05-06 04:42 | 35.70614 | -118.92676 | 26484 ft | 393 kts | 341° |
| 2026-05-06 04:42 | 35.73162 | -118.93827 | 25657 ft | 388 kts | 340° |
| 2026-05-06 04:42 | 35.75678 | -118.94969 | 24866 ft | 383 kts | 340° |
| 2026-05-06 04:43 | 35.78151 | -118.96093 | 24251 ft | 373 kts | 340° |
| 2026-05-06 04:43 | 35.80527 | -118.97174 | 23883 ft | 357 kts | 340° |
| 2026-05-06 04:43 | 35.82814 | -118.98215 | 23282 ft | 347 kts | 340° |
| 2026-05-06 04:43 | 35.85100 | -118.99252 | 22082 ft | 353 kts | 340° |
| 2026-05-06 04:44 | 35.87420 | -119.00304 | 20949 ft | 357 kts | 340° |
| 2026-05-06 04:44 | 35.89751 | -119.01362 | 20008 ft | 355 kts | 340° |
| 2026-05-06 04:44 | 35.92058 | -119.02413 | 19163 ft | 352 kts | 339° |
| 2026-05-06 04:44 | 35.94336 | -119.03474 | 18332 ft | 348 kts | 339° |
| 2026-05-06 04:45 | 35.96568 | -119.04534 | 17724 ft | 336 kts | 339° |
| 2026-05-06 04:45 | 35.98700 | -119.05556 | 17260 ft | 322 kts | 339° |
| 2026-05-06 04:45 | 36.00754 | -119.06543 | 16879 ft | 314 kts | 339° |
| 2026-05-06 04:45 | 36.02799 | -119.07523 | 16348 ft | 317 kts | 339° |
| 2026-05-06 04:46 | 36.04855 | -119.08506 | 15947 ft | 316 kts | 339° |
| 2026-05-06 04:46 | 36.06896 | -119.09479 | 15557 ft | 314 kts | 339° |
| 2026-05-06 04:46 | 36.08931 | -119.10447 | 15182 ft | 312 kts | 339° |
| 2026-05-06 04:46 | 36.10952 | -119.11408 | 14799 ft | 311 kts | 339° |
| 2026-05-06 04:47 | 36.12963 | -119.12365 | 14422 ft | 309 kts | 339° |
| 2026-05-06 04:47 | 36.14964 | -119.13319 | 14037 ft | 308 kts | 339° |
| 2026-05-06 04:47 | 36.16957 | -119.14273 | 13640 ft | 306 kts | 339° |
| 2026-05-06 04:47 | 36.18939 | -119.15224 | 13243 ft | 304 kts | 339° |
| 2026-05-06 04:48 | 36.20897 | -119.16165 | 12874 ft | 301 kts | 339° |
| 2026-05-06 04:48 | 36.21878 | -119.16635 | 12684 ft | 300 kts | 339° |
| 2026-05-06 04:48 | 36.23816 | -119.17563 | 12323 ft | 298 kts | 339° |
| 2026-05-06 04:48 | 36.25741 | -119.18484 | 11954 ft | 295 kts | 339° |
| 2026-05-06 04:49 | 36.27651 | -119.19400 | 11588 ft | 293 kts | 339° |
| 2026-05-06 04:49 | 36.29546 | -119.20311 | 11228 ft | 291 kts | 339° |
| 2026-05-06 04:49 | 36.31429 | -119.21214 | 10864 ft | 290 kts | 339° |
| 2026-05-06 04:49 | 36.33301 | -119.22111 | 10505 ft | 288 kts | 339° |
| 2026-05-06 04:50 | 36.35164 | -119.23005 | 10142 ft | 286 kts | 339° |
| 2026-05-06 04:50 | 36.37022 | -119.23893 | 9767 ft | 285 kts | 339° |
| 2026-05-06 04:50 | 36.38865 | -119.24777 | 9396 ft | 283 kts | 339° |
| 2026-05-06 04:50 | 36.40690 | -119.25654 | 9039 ft | 280 kts | 339° |
| 2026-05-06 04:51 | 36.42501 | -119.26525 | 8686 ft | 278 kts | 339° |
| 2026-05-06 04:51 | 36.44296 | -119.27387 | 8337 ft | 276 kts | 339° |
| 2026-05-06 04:51 | 36.46081 | -119.28244 | 7987 ft | 274 kts | 339° |
| 2026-05-06 04:51 | 36.47851 | -119.29096 | 7635 ft | 272 kts | 338° |
| 2026-05-06 04:52 | 36.49609 | -119.29943 | 7289 ft | 270 kts | 338° |
| 2026-05-06 04:52 | 36.51360 | -119.30789 | 6952 ft | 269 kts | 338° |
| 2026-05-06 04:52 | 36.53098 | -119.31626 | 6602 ft | 267 kts | 338° |
| 2026-05-06 04:52 | 36.54749 | -119.32657 | 6242 ft | 265 kts | 324° |
| 2026-05-06 04:53 | 36.56004 | -119.34038 | 5935 ft | 263 kts | 310° |
| 2026-05-06 04:53 | 36.57114 | -119.35912 | 5574 ft | 261 kts | 305° |
| 2026-05-06 04:53 | 36.58147 | -119.37721 | 5238 ft | 259 kts | 306° |
| 2026-05-06 04:53 | 36.59195 | -119.39537 | 4903 ft | 258 kts | 306° |
| 2026-05-06 04:54 | 36.60238 | -119.41346 | 4580 ft | 255 kts | 306° |
| 2026-05-06 04:54 | 36.61247 | -119.43097 | 4508 ft | 243 kts | 306° |
| 2026-05-06 04:54 | 36.62219 | -119.44784 | 4414 ft | 231 kts | 306° |
| 2026-05-06 04:54 | 36.63118 | -119.46346 | 4317 ft | 219 kts | 306° |
| 2026-05-06 04:55 | 36.63984 | -119.47851 | 4224 ft | 208 kts | 306° |
| 2026-05-06 04:55 | 36.64804 | -119.49278 | 4135 ft | 197 kts | 306° |
| 2026-05-06 04:55 | 36.65580 | -119.50628 | 4064 ft | 186 kts | 306° |
| 2026-05-06 04:55 | 36.66334 | -119.51939 | 3936 ft | 186 kts | 307° |
| 2026-05-06 04:56 | 36.67087 | -119.53249 | 3723 ft | 186 kts | 306° |
| 2026-05-06 04:56 | 36.67827 | -119.54539 | 3511 ft | 182 kts | 307° |
| 2026-05-06 04:56 | 36.68562 | -119.55818 | 3264 ft | 180 kts | 307° |
| 2026-05-06 04:56 | 36.69285 | -119.57079 | 3016 ft | 178 kts | 307° |
| 2026-05-06 04:57 | 36.70000 | -119.58325 | 2781 ft | 176 kts | 307° |
| 2026-05-06 04:57 | 36.70705 | -119.59555 | 2553 ft | 172 kts | 307° |
| 2026-05-06 04:57 | 36.71370 | -119.60716 | 2322 ft | 156 kts | 307° |
| 2026-05-06 04:57 | 36.71968 | -119.61761 | 2146 ft | 139 kts | 307° |
| 2026-05-06 04:58 | 36.72507 | -119.62701 | 1960 ft | 130 kts | 307° |
| 2026-05-06 04:58 | 36.73034 | -119.63620 | 1778 ft | 131 kts | 307° |
| 2026-05-06 04:58 | 36.73563 | -119.64539 | 1597 ft | 131 kts | 307° |
| 2026-05-06 04:58 | 36.74087 | -119.65463 | 1456 ft | 130 kts | 306° |
| 2026-05-06 04:59 | 36.74613 | -119.66380 | 1266 ft | 130 kts | 306° |
| 2026-05-06 04:59 | 36.75135 | -119.67293 | 1044 ft | 129 kts | 306° |
| 2026-05-06 04:59 | 36.75652 | -119.68204 | 815 ft | 128 kts | 305° |
| 2026-05-06 04:59 | 36.76166 | -119.69100 | 663 ft | 127 kts | 305° |
| 2026-05-06 05:00 | 36.76677 | -119.70000 | 465 ft | 127 kts | 305° |
| 2026-05-06 05:00 | 36.77192 | -119.70892 | 349 ft | 127 kts | 306° |
| 2026-05-06 05:00 | 36.77620 | -119.71640 | 347 ft | 67 kts | 305° |
| 2026-05-06 05:00 | 36.77772 | -119.71906 | 340 ft | 31 kts | 306° |
| 2026-05-06 05:01 | 36.77897 | -119.72131 | 334 ft | 33 kts | 306° |
| 2026-05-06 05:01 | 36.78000 | -119.72308 | 335 ft | 17 kts | 291° |
| 2026-05-06 05:01 | 36.77963 | -119.72417 | 337 ft | 17 kts | 217° |
| 2026-05-06 05:01 | 36.77863 | -119.72510 | 337 ft | 21 kts | 214° |
| 2026-05-06 05:02 | 36.77759 | -119.72533 | 340 ft | 16 kts | 135° |
| 2026-05-06 05:02 | 36.77678 | -119.72397 | 340 ft | 23 kts | 123° |
| 2026-05-06 05:02 | 36.77577 | -119.72216 | 337 ft | 28 kts | 126° |
| 2026-05-06 05:02 | 36.77483 | -119.72051 | 337 ft | 17 kts | 127° |
| 2026-05-06 05:03 | 36.77369 | -119.71972 | 338 ft | 18 kts | 154° |
| 2026-05-06 05:03 | 36.77287 | -119.71943 | 340 ft | 12 kts | 192° |
| 2026-05-06 05:03 | 36.77238 | -119.71953 | 338 ft | 8 kts | 156° |
| 2026-05-06 05:03 | 36.77208 | -119.71922 | 339 ft | 4 kts | 136° |
| 2026-05-06 05:04 | 36.77192 | -119.71904 | 337 ft | 0 kts | 143° |